Time;durP1;ratioP1;P1;durP2;ratioP2;P2;SDS_P1;SDS_P2;PMS_P1;PMS_P2;Temp;Humidity;BMP_temperature;BMP_pressure;BME280_temperature;BME280_humidity;BME280_pressure;Samples;Min_cycle;Max_cycle;Signal;HPM_P1;HPM_P2
2022/08/03 00:01:28;;;;;;;1999.90;999.90;;;18.40;99.90;;;;;;5130164;27;20601;-76
2022/08/03 00:03:53;;;;;;;1999.90;999.90;;;18.40;99.90;;;;;;5110144;27;20032;-76
2022/08/03 00:06:19;;;;;;;1999.90;999.90;;;18.30;99.90;;;;;;5130294;27;20036;-76
2022/08/03 00:08:45;;;;;;;1999.90;999.90;;;18.40;99.90;;;;;;5125847;27;20414;-76
2022/08/03 00:11:10;;;;;;;1999.90;999.90;;;18.40;99.90;;;;;;5135349;27;20049;-76
2022/08/03 00:13:36;;;;;;;1999.90;999.90;;;18.40;99.90;;;;;;5124089;27;20389;-76
2022/08/03 00:16:02;;;;;;;1999.90;999.90;;;18.40;99.90;;;;;;5131843;27;20035;-76
2022/08/03 00:18:27;;;;;;;1999.90;999.90;;;18.40;99.90;;;;;;5132054;27;20399;-76
2022/08/03 00:20:53;;;;;;;1999.90;999.90;;;18.30;99.90;;;;;;5113432;27;20092;-76
2022/08/03 00:23:19;;;;;;;1999.90;999.90;;;18.30;99.90;;;;;;5129868;27;20070;-76
2022/08/03 00:25:44;;;;;;;1999.90;999.90;;;18.30;99.90;;;;;;5130289;27;20042;-76
2022/08/03 00:28:10;;;;;;;1999.90;999.90;;;18.30;99.90;;;;;;5131436;27;20040;-76
2022/08/03 00:30:35;;;;;;;1999.90;999.90;;;18.20;99.90;;;;;;5127433;27;20031;-76
2022/08/03 00:33:02;;;;;;;1999.90;999.90;;;18.30;99.90;;;;;;5126815;27;20038;-75
2022/08/03 00:35:28;;;;;;;1999.90;999.90;;;18.20;99.90;;;;;;5125156;27;20042;-75
2022/08/03 00:37:54;;;;;;;1999.90;999.90;;;18.20;99.90;;;;;;5128544;27;20074;-76
2022/08/03 00:40:20;;;;;;;1999.90;999.90;;;18.20;99.90;;;;;;5127775;27;20071;-75
2022/08/03 00:42:57;;;;;;;1999.90;999.90;;;18.20;99.90;;;;;;5102529;28;20035;-75
2022/08/03 00:45:29;;;;;;;1999.90;999.90;;;18.10;99.90;;;;;;5116116;27;20483;-76
2022/08/03 00:47:55;;;;;;;1999.90;999.90;;;18.10;99.90;;;;;;5128392;27;20047;-76
2022/08/03 00:50:23;;;;;;;1999.90;999.90;;;18.10;99.90;;;;;;5123418;27;20031;-76
2022/08/03 00:52:52;;;;;;;1999.90;999.90;;;18.10;99.90;;;;;;5112098;27;20558;-76
2022/08/03 00:55:18;;;;;;;1999.90;999.90;;;18.10;99.90;;;;;;5127452;27;20039;-76
2022/08/03 00:57:44;;;;;;;1999.90;999.90;;;18.10;99.90;;;;;;5127658;27;20045;-76
2022/08/03 01:00:12;;;;;;;1999.90;999.90;;;18.00;99.90;;;;;;5103840;27;20043;-76
2022/08/03 01:02:38;;;;;;;1999.90;999.90;;;18.00;99.90;;;;;;5127615;27;20086;-76
2022/08/03 01:05:04;;;;;;;1999.90;999.90;;;18.00;99.90;;;;;;5121721;27;20057;-76
2022/08/03 01:07:35;;;;;;;1999.90;999.90;;;18.00;99.90;;;;;;5105561;28;20054;-76
2022/08/03 01:10:42;;;;;;;1999.90;999.90;;;18.00;99.90;;;;;;5128028;27;20039;-75
2022/08/03 01:13:20;;;;;;;1999.90;999.90;;;18.00;99.90;;;;;;5107796;28;20035;-76
2022/08/03 01:16:07;;;;;;;1999.90;999.90;;;18.00;99.90;;;;;;5128492;27;20110;-76
2022/08/03 01:18:44;;;;;;;1999.90;999.90;;;18.00;99.90;;;;;;5119142;28;20039;-76
2022/08/03 01:21:34;;;;;;;1999.90;999.90;;;17.90;99.90;;;;;;5129167;27;20035;-76
2022/08/03 01:24:29;;;;;;;1999.90;999.90;;;17.90;99.90;;;;;;5112556;27;20065;-76
2022/08/03 01:27:16;;;;;;;1999.90;999.90;;;17.90;99.90;;;;;;5132471;27;20448;-76
2022/08/03 01:29:57;;;;;;;1999.90;999.90;;;17.90;99.90;;;;;;5117900;27;20039;-76
2022/08/03 01:32:29;;;;;;;1999.90;999.90;;;17.90;99.90;;;;;;5133371;27;20042;-76
2022/08/03 01:35:02;;;;;;;1999.90;999.90;;;17.90;99.90;;;;;;5126584;27;20157;-76
2022/08/03 01:37:36;;;;;;;1999.90;999.90;;;17.90;99.90;;;;;;5136459;27;20134;-76
2022/08/03 01:40:04;;;;;;;1999.90;999.90;;;17.90;99.90;;;;;;5138461;27;20130;-76
2022/08/03 01:42:31;;;;;;;1999.90;999.90;;;17.90;99.90;;;;;;5139895;27;20039;-76
2022/08/03 01:44:58;;;;;;;1999.90;999.90;;;17.90;99.90;;;;;;5133314;27;20043;-76
2022/08/03 01:47:26;;;;;;;1999.90;999.90;;;17.90;99.90;;;;;;5132468;27;20514;-76
2022/08/03 01:49:54;;;;;;;1999.90;999.90;;;17.90;99.90;;;;;;5099688;27;20043;-76
2022/08/03 01:52:21;;;;;;;1999.90;999.90;;;17.90;99.90;;;;;;5131649;27;20038;-76
2022/08/03 01:54:50;;;;;;;1999.90;999.90;;;17.90;99.90;;;;;;5113854;27;20054;-76
2022/08/03 01:57:17;;;;;;;1999.90;999.90;;;17.90;99.90;;;;;;5132724;27;20423;-76
2022/08/03 01:59:47;;;;;;;1999.90;999.90;;;17.90;99.90;;;;;;5137955;27;20058;-76
2022/08/03 02:02:15;;;;;;;1999.90;999.90;;;17.90;99.90;;;;;;5141716;27;20030;-76
2022/08/03 02:04:43;;;;;;;1999.90;999.90;;;17.80;99.90;;;;;;5132247;27;20184;-76
2022/08/03 02:07:10;;;;;;;1999.90;999.90;;;17.80;99.90;;;;;;5136952;27;20780;-76
2022/08/03 02:09:42;;;;;;;1999.90;999.90;;;17.80;99.90;;;;;;5133147;27;20046;-76
2022/08/03 02:12:09;;;;;;;1999.90;999.90;;;17.80;99.90;;;;;;5100728;28;20043;-76
2022/08/03 02:14:38;;;;;;;1999.90;999.90;;;17.90;99.90;;;;;;5130744;27;20118;-76
2022/08/03 02:17:05;;;;;;;1999.90;999.90;;;17.90;99.90;;;;;;5133411;27;20126;-76
2022/08/03 02:19:33;;;;;;;1999.90;999.90;;;17.90;99.90;;;;;;5131485;27;20445;-76
2022/08/03 02:21:59;;;;;;;1999.90;999.90;;;17.90;99.90;;;;;;5130845;27;20402;-76
2022/08/03 02:24:25;;;;;;;1999.90;999.90;;;17.90;99.90;;;;;;5134488;27;20035;-76
2022/08/03 02:26:54;;;;;;;1999.90;999.90;;;17.90;99.90;;;;;;5130776;27;20502;-76
2022/08/03 02:29:23;;;;;;;1999.90;999.90;;;17.90;99.90;;;;;;5139863;27;20042;-76
2022/08/03 02:31:50;;;;;;;1999.90;999.90;;;17.90;99.90;;;;;;5120623;27;20031;-76
2022/08/03 02:34:19;;;;;;;1999.90;999.90;;;17.90;99.90;;;;;;5114227;27;20483;-76
2022/08/03 02:36:49;;;;;;;1999.90;999.90;;;17.90;99.90;;;;;;5111414;27;20039;-76
2022/08/03 02:39:19;;;;;;;1999.90;999.90;;;17.90;99.90;;;;;;5130092;27;20124;-76
2022/08/03 02:42:00;;;;;;;1999.90;999.90;;;17.90;99.90;;;;;;5112801;27;20031;-76
2022/08/03 02:44:28;;;;;;;1999.90;999.90;;;17.90;99.90;;;;;;5108820;27;20040;-76
2022/08/03 02:47:02;;;;;;;1999.90;999.90;;;17.90;99.90;;;;;;5109243;27;20626;-76
2022/08/03 02:49:28;;;;;;;1999.90;999.90;;;17.90;99.90;;;;;;5084935;28;20086;-76
2022/08/03 02:51:56;;;;;;;1999.90;999.90;;;17.90;99.90;;;;;;5108520;27;20169;-76
2022/08/03 02:54:23;;;;;;;1999.90;999.90;;;17.80;99.90;;;;;;5103214;27;20055;-76
2022/08/03 02:56:50;;;;;;;1999.90;999.90;;;17.80;99.90;;;;;;5101553;27;20043;-76
2022/08/03 02:59:18;;;;;;;1999.90;999.90;;;17.80;99.90;;;;;;5086488;28;20043;-76
2022/08/03 03:01:45;;;;;;;1999.90;999.90;;;17.70;99.90;;;;;;5105561;27;20104;-76
2022/08/03 03:04:11;;;;;;;1999.90;999.90;;;17.70;99.90;;;;;;5108835;28;20119;-75
2022/08/03 03:06:38;;;;;;;1999.90;999.90;;;17.70;99.90;;;;;;5100664;27;20404;-76
2022/08/03 03:09:05;;;;;;;1999.90;999.90;;;17.60;99.90;;;;;;5100056;27;20047;-76
2022/08/03 03:11:32;;;;;;;1999.90;999.90;;;17.60;99.90;;;;;;5105609;27;20495;-76
2022/08/03 03:13:59;;;;;;;1999.90;999.90;;;17.60;99.90;;;;;;5094305;28;20036;-76
2022/08/03 03:16:28;;;;;;;1999.90;999.90;;;17.60;99.90;;;;;;5083384;28;20078;-76
2022/08/03 03:18:54;;;;;;;1999.90;999.90;;;17.60;99.90;;;;;;5094833;28;20044;-76
2022/08/03 03:21:20;;;;;;;1999.90;999.90;;;17.50;99.90;;;;;;5093137;27;20407;-76
2022/08/03 03:23:47;;;;;;;1999.90;999.90;;;17.50;99.90;;;;;;5101805;27;20039;-76
2022/08/03 03:26:15;;;;;;;1999.90;999.90;;;17.50;99.90;;;;;;5089491;28;20054;-76
2022/08/03 03:28:41;;;;;;;1999.90;999.90;;;17.50;99.90;;;;;;5096124;27;20530;-76
2022/08/03 03:31:07;;;;;;;1999.90;999.90;;;17.50;99.90;;;;;;5096196;27;20086;-77
2022/08/03 03:33:33;;;;;;;1999.90;999.90;;;17.50;99.90;;;;;;5092589;27;20036;-76
2022/08/03 03:36:00;;;;;;;1999.90;999.90;;;17.50;99.90;;;;;;5083618;28;20397;-76
2022/08/03 03:38:26;;;;;;;1999.90;999.90;;;17.50;99.90;;;;;;5104279;27;20032;-76
2022/08/03 03:40:51;;;;;;;1999.90;999.90;;;17.50;99.90;;;;;;5126756;27;20093;-76
2022/08/03 03:43:18;;;;;;;1999.90;999.90;;;17.50;99.90;;;;;;5134739;27;20498;-76
2022/08/03 03:45:46;;;;;;;1999.90;999.90;;;17.40;99.90;;;;;;5134411;27;20130;-76
2022/08/03 03:48:12;;;;;;;1999.90;999.90;;;17.50;99.90;;;;;;5127425;27;20039;-76
2022/08/03 03:50:40;;;;;;;1999.90;999.90;;;17.40;99.90;;;;;;5127365;27;20061;-76
2022/08/03 03:53:09;;;;;;;1999.90;999.90;;;17.40;99.90;;;;;;5127317;27;20035;-76
2022/08/03 03:55:36;;;;;;;1999.90;999.90;;;17.40;99.90;;;;;;5131482;27;20088;-76
2022/08/03 03:58:02;;;;;;;1999.90;999.90;;;17.40;99.90;;;;;;5132214;27;20035;-76
2022/08/03 04:00:29;;;;;;;1999.90;999.90;;;17.40;99.90;;;;;;5138958;27;20043;-76
2022/08/03 04:02:55;;;;;;;1999.90;999.90;;;17.50;99.90;;;;;;5126060;27;20115;-76
2022/08/03 04:11:18;;;;;;;1999.90;999.90;;;17.40;99.90;;;;;;5136202;27;20053;-76
2022/08/03 04:14:05;;;;;;;;;;;17.50;99.90;;;;;;5134540;27;20049;-76
2022/08/03 04:16:35;;;;;;;1999.90;999.90;;;17.50;99.90;;;;;;5132923;27;19944;-76
2022/08/03 04:19:09;;;;;;;1999.90;999.90;;;17.50;99.90;;;;;;5110448;27;20054;-76
2022/08/03 04:21:39;;;;;;;1999.90;999.90;;;17.50;99.90;;;;;;5098133;27;20187;-76
2022/08/03 04:24:08;;;;;;;1999.90;999.90;;;17.50;99.90;;;;;;5129028;27;20398;-77
2022/08/03 04:26:38;;;;;;;1999.90;999.90;;;17.50;99.90;;;;;;5109850;27;20055;-76
2022/08/03 04:29:05;;;;;;;1999.90;999.90;;;17.50;99.90;;;;;;5125998;27;20054;-76
2022/08/03 04:31:32;;;;;;;1999.90;999.90;;;17.60;99.90;;;;;;5132360;27;20035;-76
2022/08/03 04:33:58;;;;;;;1999.90;999.90;;;17.50;99.90;;;;;;5097617;27;20065;-76
2022/08/03 04:36:30;;;;;;;1999.90;999.90;;;17.50;99.90;;;;;;5133308;27;20058;-77
2022/08/03 04:39:21;;;;;;;1999.90;999.90;;;17.60;99.90;;;;;;5129100;27;20047;-77
2022/08/03 04:41:48;;;;;;;1999.90;999.90;;;17.60;99.90;;;;;;5130537;27;20047;-76
2022/08/03 04:44:15;;;;;;;1999.90;999.90;;;17.70;99.90;;;;;;5129859;27;20455;-76
2022/08/03 04:46:43;;;;;;;1999.90;999.90;;;17.70;99.90;;;;;;5133022;27;20039;-76
2022/08/03 04:49:09;;;;;;;1999.90;999.90;;;17.80;99.90;;;;;;5132924;27;20168;-76
2022/08/03 04:51:37;;;;;;;1999.90;999.90;;;17.90;99.90;;;;;;5110343;27;20043;-77
2022/08/03 04:54:03;;;;;;;1999.90;999.90;;;17.90;99.90;;;;;;5108959;28;20043;-76
2022/08/03 04:56:29;;;;;;;1999.90;999.90;;;17.90;99.90;;;;;;5092403;27;20054;-76
2022/08/03 04:58:55;;;;;;;1999.90;999.90;;;18.00;99.90;;;;;;5130335;27;20031;-76
2022/08/03 05:01:21;;;;;;;1999.90;999.90;;;18.10;99.90;;;;;;5127802;27;20098;-76
2022/08/03 05:03:47;;;;;;;1999.90;999.90;;;18.10;99.90;;;;;;5139937;27;20042;-76
2022/08/03 05:06:15;;;;;;;1999.90;999.90;;;18.10;99.90;;;;;;5122452;27;20043;-77
2022/08/03 05:08:41;;;;;;;1999.90;999.90;;;18.20;99.90;;;;;;5139245;27;20497;-77
2022/08/03 05:11:07;;;;;;;1999.90;999.90;;;18.20;99.90;;;;;;5136300;27;20117;-77
2022/08/03 05:13:33;;;;;;;1999.90;999.90;;;18.30;99.90;;;;;;5140618;27;20497;-76
2022/08/03 05:15:58;;;;;;;1999.90;999.90;;;18.30;99.90;;;;;;5146102;27;20039;-76
2022/08/03 05:18:24;;;;;;;1999.90;999.90;;;18.30;99.90;;;;;;5117653;27;20566;-77
2022/08/03 05:20:50;;;;;;;1999.90;999.90;;;18.40;99.90;;;;;;5115823;27;20090;-77
2022/08/03 05:23:15;;;;;;;1999.90;999.90;;;18.40;99.90;;;;;;5143312;27;20061;-76
2022/08/03 05:25:41;;;;;;;1999.90;999.90;;;18.50;99.90;;;;;;5143695;27;20403;-77
2022/08/03 05:28:07;;;;;;;1999.90;999.90;;;18.60;99.90;;;;;;5149579;27;20070;-77
2022/08/03 05:30:32;;;;;;;1999.90;999.90;;;18.60;99.90;;;;;;5141903;27;20475;-76
2022/08/03 05:32:58;;;;;;;1999.90;999.90;;;18.70;99.90;;;;;;5137875;27;20475;-77
2022/08/03 05:35:25;;;;;;;1999.90;999.90;;;18.80;99.90;;;;;;5139371;27;20406;-77
2022/08/03 05:37:50;;;;;;;1999.90;999.90;;;18.80;99.90;;;;;;5136022;27;20039;-77
2022/08/03 05:40:16;;;;;;;1999.90;999.90;;;18.90;99.90;;;;;;5129993;27;20574;-77
2022/08/03 05:42:42;;;;;;;1999.90;999.90;;;19.00;99.90;;;;;;5134167;27;20076;-77
2022/08/03 05:45:14;;;;;;;1999.90;999.90;;;19.10;99.90;;;;;;5088306;27;20043;-76
2022/08/03 05:47:43;;;;;;;1999.90;999.90;;;19.20;99.90;;;;;;5136340;27;20114;-77
2022/08/03 05:50:11;;;;;;;1999.90;999.90;;;19.40;99.90;;;;;;5145635;27;20047;-76
2022/08/03 05:52:37;;;;;;;1999.90;999.90;;;19.50;99.90;;;;;;5131825;27;20058;-76
2022/08/03 05:55:07;;;;;;;1999.90;999.90;;;19.70;99.90;;;;;;5136003;27;20047;-76
2022/08/03 05:57:33;;;;;;;1999.90;999.90;;;19.80;99.90;;;;;;5131912;27;20058;-77
2022/08/03 05:59:59;;;;;;;1999.90;999.90;;;19.90;99.90;;;;;;5146149;27;20043;-76
2022/08/03 06:02:26;;;;;;;1999.90;999.90;;;20.10;99.90;;;;;;5146137;27;20074;-77
2022/08/03 06:04:52;;;;;;;1999.90;999.90;;;20.70;99.90;;;;;;5145973;27;20505;-77
2022/08/03 06:07:17;;;;;;;1999.90;999.90;;;21.50;99.90;;;;;;5123222;27;20035;-77
2022/08/03 06:09:43;;;;;;;1999.90;999.90;;;21.60;99.90;;;;;;5143398;27;20060;-77
2022/08/03 06:12:09;;;;;;;1999.90;999.90;;;21.40;99.90;;;;;;5148209;27;20034;-76
2022/08/03 06:14:34;;;;;;;1999.90;999.90;;;21.20;99.90;;;;;;5125997;27;20035;-78
2022/08/03 06:17:00;;;;;;;1999.90;999.90;;;21.00;99.90;;;;;;5145775;27;20081;-77
2022/08/03 06:19:26;;;;;;;1999.90;999.90;;;20.90;99.90;;;;;;5143028;27;20038;-76
2022/08/03 06:21:52;;;;;;;1999.90;999.90;;;20.70;99.90;;;;;;5131644;27;20039;-77
2022/08/03 06:24:17;;;;;;;1999.90;999.90;;;20.70;99.90;;;;;;5129345;27;20043;-77
2022/08/03 06:26:43;;;;;;;1999.90;999.90;;;20.60;99.90;;;;;;5122156;27;20133;-76
2022/08/03 06:29:09;;;;;;;1999.90;999.90;;;20.90;99.90;;;;;;5140017;27;20038;-76
2022/08/03 06:31:35;;;;;;;1999.90;999.90;;;21.60;99.90;;;;;;5143392;27;20459;-76
2022/08/03 06:34:04;;;;;;;1999.90;999.90;;;22.50;99.90;;;;;;5136223;27;20134;-76
2022/08/03 06:36:30;;;;;;;1999.90;999.90;;;23.50;99.90;;;;;;5135875;27;20054;-78
2022/08/03 06:39:00;;;;;;;1999.90;999.90;;;23.70;99.90;;;;;;5136941;27;20039;-77
2022/08/03 06:41:26;;;;;;;1999.90;999.90;;;23.60;99.90;;;;;;5124059;27;20039;-78
2022/08/03 06:43:52;;;;;;;1999.90;999.90;;;23.60;99.90;;;;;;5116809;27;20040;-77
2022/08/03 06:46:18;;;;;;;1999.90;999.90;;;23.60;99.90;;;;;;5106303;27;20038;-78
2022/08/03 06:48:44;;;;;;;1999.90;999.90;;;23.60;99.90;;;;;;5120576;27;20043;-78
2022/08/03 06:51:10;;;;;;;1999.90;999.90;;;23.60;99.90;;;;;;5106439;27;20066;-77
2022/08/03 06:53:35;;;;;;;1999.90;999.90;;;24.30;99.90;;;;;;5120478;27;20038;-77
2022/08/03 06:56:03;;;;;;;1999.90;999.90;;;25.00;99.90;;;;;;5130969;27;20051;-78
2022/08/03 06:58:28;;;;;;;1999.90;999.90;;;25.40;99.90;;;;;;5122051;27;20039;-78
2022/08/03 07:00:54;;;;;;;1999.90;999.90;;;25.80;99.90;;;;;;5122299;27;20050;-78
2022/08/03 07:03:19;;;;;;;1999.90;999.90;;;26.30;99.90;;;;;;5083010;27;20043;-78
2022/08/03 07:05:46;;;;;;;1999.90;999.90;;;26.60;99.90;;;;;;5117509;27;20032;-77
2022/08/03 07:08:12;;;;;;;1999.90;999.90;;;27.00;99.90;;;;;;5111885;27;20035;-77
2022/08/03 07:10:38;;;;;;;1999.90;999.90;;;27.20;99.90;;;;;;5106053;27;20400;-78
2022/08/03 07:13:04;;;;;;;1999.90;999.90;;;27.30;99.90;;;;;;5105106;27;20040;-77
2022/08/03 07:15:30;;;;;;;1999.90;999.90;;;27.10;99.90;;;;;;5097113;27;20491;-77
2022/08/03 07:17:55;;;;;;;1999.90;999.90;;;27.20;99.90;;;;;;5068884;28;20044;-77
2022/08/03 07:20:21;;;;;;;1999.90;999.90;;;27.60;99.90;;;;;;5105245;27;20118;-77
2022/08/03 07:22:47;;;;;;;1999.90;999.90;;;27.80;99.90;;;;;;5102247;27;20115;-78
2022/08/03 07:25:14;;;;;;;1999.90;999.90;;;27.50;99.90;;;;;;5101144;27;20119;-77
2022/08/03 07:27:43;;;;;;;1999.90;999.90;;;27.30;99.90;;;;;;5102601;27;20039;-77
2022/08/03 07:30:10;;;;;;;1999.90;999.90;;;26.90;99.90;;;;;;5066968;28;20066;-77
2022/08/03 07:32:35;;;;;;;1999.90;999.90;;;26.20;99.90;;;;;;5103808;27;20039;-78
2022/08/03 07:35:03;;;;;;;1999.90;999.90;;;25.50;99.90;;;;;;5076391;28;20089;-77
2022/08/03 07:37:30;;;;;;;1999.90;999.90;;;25.00;99.90;;;;;;5096937;27;20454;-77
2022/08/03 07:39:56;;;;;;;1999.90;999.90;;;24.50;99.90;;;;;;5083829;27;20058;-77
2022/08/03 07:42:24;;;;;;;1999.90;999.90;;;24.60;99.90;;;;;;5108732;27;20043;-77
2022/08/03 07:44:50;;;;;;;1999.90;999.90;;;24.60;99.90;;;;;;5080944;27;20043;-76
2022/08/03 07:47:21;;;;;;;1999.90;999.90;;;24.40;99.90;;;;;;5113421;27;20505;-76
2022/08/03 07:49:47;;;;;;;1999.90;999.90;;;24.00;99.90;;;;;;5121908;27;20074;-76
2022/08/03 07:54:57;;;;;;;1999.90;999.90;;;23.60;99.90;;;;;;5124036;27;20035;-77
2022/08/03 07:57:23;;;;;;;1999.90;999.90;;;23.50;99.90;;;;;;5121659;27;20059;-77
2022/08/03 07:59:48;;;;;;;1999.90;999.90;;;23.40;99.90;;;;;;5124059;27;20156;-77
2022/08/03 08:02:14;;;;;;;1999.90;999.90;;;23.30;99.90;;;;;;5108444;27;20099;-76
2022/08/03 08:04:40;;;;;;;1999.90;999.90;;;23.30;99.90;;;;;;5124348;27;20506;-76
2022/08/03 08:07:06;;;;;;;1999.90;999.90;;;23.30;99.90;;;;;;5128770;27;20576;-76
2022/08/03 08:09:31;;;;;;;1999.90;999.90;;;23.30;99.90;;;;;;5130580;27;20122;-76
2022/08/03 08:11:57;;;;;;;1999.90;999.90;;;23.30;99.90;;;;;;5126167;27;20039;-76
2022/08/03 08:14:22;;;;;;;1999.90;999.90;;;23.30;99.90;;;;;;5132734;27;20039;-75
2022/08/03 08:16:48;;;;;;;1999.90;999.90;;;23.30;99.90;;;;;;5133060;27;20043;-76
2022/08/03 08:19:15;;;;;;;1999.90;999.90;;;23.30;99.90;;;;;;5115785;27;20039;-76
2022/08/03 08:21:41;;;;;;;1999.90;999.90;;;23.40;99.90;;;;;;5124581;27;20034;-76
2022/08/03 08:24:07;;;;;;;1999.90;999.90;;;23.50;99.90;;;;;;5128299;27;20147;-76
2022/08/03 08:26:33;;;;;;;1999.90;999.90;;;23.40;99.90;;;;;;5129105;27;20096;-76
2022/08/03 08:28:59;;;;;;;1999.90;999.90;;;23.50;99.90;;;;;;5130516;27;20035;-76
2022/08/03 08:31:25;;;;;;;1999.90;999.90;;;23.50;99.90;;;;;;5133779;27;20434;-77
2022/08/03 08:33:50;;;;;;;1999.90;999.90;;;23.60;99.90;;;;;;5138565;27;20041;-76
2022/08/03 08:36:16;;;;;;;1999.90;999.90;;;23.60;99.90;;;;;;5105640;27;20046;-76
2022/08/03 08:38:43;;;;;;;1999.90;999.90;;;23.70;99.90;;;;;;5113018;27;20467;-76
2022/08/03 08:41:10;;;;;;;1999.90;999.90;;;24.00;99.90;;;;;;5094888;28;20502;-76
2022/08/03 08:43:36;;;;;;;1999.90;999.90;;;24.20;99.90;;;;;;5107982;27;20104;-77
2022/08/03 08:46:02;;;;;;;1999.90;999.90;;;24.60;99.90;;;;;;5127915;27;20038;-77
2022/08/03 08:48:29;;;;;;;1999.90;999.90;;;25.20;99.90;;;;;;5125560;27;20087;-77
2022/08/03 08:50:56;;;;;;;1999.90;999.90;;;25.40;99.90;;;;;;5113313;27;20042;-76
2022/08/03 08:53:25;;;;;;;1999.90;999.90;;;26.00;99.90;;;;;;5112015;27;20093;-76
2022/08/03 08:55:53;;;;;;;1999.90;999.90;;;26.60;99.90;;;;;;5072999;28;20039;-76
2022/08/03 08:58:22;;;;;;;1999.90;999.90;;;26.90;99.90;;;;;;5092561;28;20040;-76
2022/08/03 09:00:48;;;;;;;1999.90;999.90;;;27.50;99.90;;;;;;5108262;28;20036;-76
2022/08/03 09:03:14;;;;;;;1999.90;999.90;;;27.80;99.90;;;;;;5111836;28;20510;-76
2022/08/03 09:05:42;;;;;;;1999.90;999.90;;;28.10;99.90;;;;;;5084663;28;20453;-74
2022/08/03 09:08:08;;;;;;;1999.90;999.90;;;28.40;99.90;;;;;;5107615;28;20376;-74
2022/08/03 09:10:34;;;;;;;1999.90;999.90;;;28.70;99.90;;;;;;5105001;28;20046;-74
2022/08/03 09:13:00;;;;;;;1999.90;999.90;;;28.80;99.90;;;;;;5104231;28;20035;-74
2022/08/03 09:15:31;;;;;;;1999.90;999.90;;;29.20;99.90;;;;;;5103087;28;20088;-74
2022/08/03 09:18:02;;;;;;;1999.90;999.90;;;29.60;99.90;;;;;;5083708;28;20043;-74
2022/08/03 09:20:30;;;;;;;1999.90;999.90;;;29.70;99.90;;;;;;5107484;28;20541;-74
2022/08/03 09:22:59;;;;;;;1999.90;999.90;;;29.70;99.90;;;;;;5108814;28;20115;-73
2022/08/03 09:25:30;;;;;;;1999.90;999.90;;;29.60;99.90;;;;;;5106409;28;20491;-74
2022/08/03 09:28:13;;;;;;;1999.90;999.90;;;29.50;99.90;;;;;;5098402;28;20036;-74
2022/08/03 09:30:44;;;;;;;1999.90;999.90;;;29.70;99.90;;;;;;5106287;28;20044;-74
2022/08/03 09:33:16;;;;;;;1999.90;999.90;;;29.80;99.90;;;;;;5110225;28;20495;-73
2022/08/03 09:35:45;;;;;;;1999.90;999.90;;;29.90;99.90;;;;;;5108874;28;20050;-74
2022/08/03 09:38:24;;;;;;;1999.90;999.90;;;29.60;99.90;;;;;;5071376;28;20047;-74
2022/08/03 09:40:51;;;;;;;1999.90;999.90;;;29.20;99.90;;;;;;5127446;27;20054;-75
2022/08/03 09:43:17;;;;;;;1999.90;999.90;;;29.10;99.90;;;;;;5119873;27;20375;-74
2022/08/03 09:45:43;;;;;;;1999.90;999.90;;;29.20;99.90;;;;;;5110155;28;20054;-74
2022/08/03 09:48:26;;;;;;;1999.90;999.90;;;29.40;99.90;;;;;;5136569;27;20140;-75
2022/08/03 09:51:02;;;;;;;1999.90;999.90;;;29.70;99.90;;;;;;5083554;27;20888;-75
2022/08/03 09:53:28;;;;;;;1999.90;999.90;;;29.80;99.90;;;;;;5121751;27;20106;-75
2022/08/03 09:55:53;;;;;;;1999.90;999.90;;;29.90;99.90;;;;;;5121870;27;20141;-75
2022/08/03 09:58:20;;;;;;;1999.90;999.90;;;29.90;99.90;;;;;;5104066;27;20807;-75
2022/08/03 10:00:57;;;;;;;1999.90;999.90;;;29.90;99.90;;;;;;5120576;27;20027;-75
2022/08/03 10:03:24;;;;;;;1999.90;999.90;;;30.10;99.90;;;;;;5117010;27;20039;-75
2022/08/03 10:05:50;;;;;;;1999.90;999.90;;;30.00;99.90;;;;;;5102193;27;20039;-74
2022/08/03 10:08:18;;;;;;;1999.90;999.90;;;29.80;99.90;;;;;;5115155;27;20380;-75
2022/08/03 10:10:45;;;;;;;1999.90;999.90;;;29.80;99.90;;;;;;5094161;27;20067;-75
2022/08/03 10:13:13;;;;;;;1999.90;999.90;;;29.90;99.90;;;;;;5122016;27;20042;-73
2022/08/03 10:15:39;;;;;;;1999.90;999.90;;;29.90;99.90;;;;;;5124248;27;20126;-75
2022/08/03 10:18:06;;;;;;;1999.90;999.90;;;30.00;99.90;;;;;;5106441;27;20043;-75
2022/08/03 10:20:36;;;;;;;1999.90;999.90;;;30.00;99.90;;;;;;5109500;27;20039;-74
2022/08/03 10:23:03;;;;;;;1999.90;999.90;;;30.20;99.90;;;;;;5083547;27;20035;-74
2022/08/03 10:25:32;;;;;;;1999.90;999.90;;;30.20;99.50;;;;;;5110349;27;20035;-74
2022/08/03 10:28:00;;;;;;;1999.90;999.90;;;30.00;99.90;;;;;;5121232;27;20153;-74
2022/08/03 10:30:27;;;;;;;1999.90;999.90;;;30.00;99.90;;;;;;5123693;27;20035;-75
2022/08/03 10:33:01;;;;;;;1999.90;999.90;;;29.90;99.90;;;;;;5128081;27;20499;-75
2022/08/03 10:35:28;;;;;;;1999.90;999.90;;;29.80;99.90;;;;;;5114130;27;20078;-75
2022/08/03 10:38:00;;;;;;;1999.90;999.90;;;29.80;99.40;;;;;;5101067;27;20445;-74
2022/08/03 10:40:34;;;;;;;1999.90;999.90;;;30.00;99.40;;;;;;5102369;27;20084;-75
2022/08/03 10:43:17;;;;;;;1999.90;999.90;;;29.80;99.00;;;;;;5120292;27;20404;-75
2022/08/03 10:45:44;;;;;;;1999.90;999.90;;;29.60;98.70;;;;;;5073252;27;20046;-76
2022/08/03 10:48:11;;;;;;;1999.90;999.90;;;29.50;98.00;;;;;;5121808;27;20042;-75
2022/08/03 10:50:39;;;;;;;1999.90;999.90;;;29.40;98.50;;;;;;5119001;27;20395;-75
2022/08/03 10:53:06;;;;;;;1999.90;999.90;;;29.30;98.80;;;;;;5120060;27;20090;-74
2022/08/03 10:58:37;;;;;;;1999.90;999.90;;;29.10;99.30;;;;;;5122962;27;20074;-74
2022/08/03 11:01:12;;;;;;;1999.90;999.90;;;29.30;99.20;;;;;;5119337;27;20039;-74
2022/08/03 11:04:03;;;;;;;1999.90;999.90;;;29.50;97.20;;;;;;5128717;27;20039;-75
2022/08/03 11:06:29;;;;;;;1999.90;999.90;;;29.20;98.80;;;;;;5099677;27;20399;-75
2022/08/03 11:09:39;;;;;;;1999.90;999.90;;;29.10;97.70;;;;;;5105330;27;20285;-75
2022/08/03 11:12:24;;;;;;;1999.90;999.90;;;29.00;98.00;;;;;;5045366;28;20590;-75
2022/08/03 11:14:50;;;;;;;1999.90;999.90;;;28.90;98.30;;;;;;5043897;28;20175;-75
2022/08/03 11:17:17;;;;;;;1999.90;999.90;;;29.00;96.60;;;;;;5038633;28;20049;-75
2022/08/03 11:19:45;;;;;;;1999.90;999.90;;;28.80;98.20;;;;;;5040912;28;20435;-75
2022/08/03 11:22:11;;;;;;;1999.90;999.90;;;28.80;98.70;;;;;;5043834;28;20056;-75
2022/08/03 11:24:39;;;;;;;1999.90;999.90;;;29.10;99.10;;;;;;5054268;28;20629;-74
2022/08/03 11:27:16;;;;;;;1999.90;999.90;;;29.30;98.50;;;;;;5055815;28;20055;-75
2022/08/03 11:30:04;;;;;;;1999.90;999.90;;;29.60;98.30;;;;;;5040423;28;20527;-75
2022/08/03 11:32:39;;;;;;;1999.90;999.90;;;29.50;98.10;;;;;;5056229;28;20044;-75
2022/08/03 11:35:21;;;;;;;1999.90;999.90;;;29.50;96.90;;;;;;5038084;28;20472;-75
2022/08/03 11:37:55;;;;;;;1999.90;999.90;;;29.60;97.50;;;;;;5046957;28;20051;-74
2022/08/03 11:40:45;;;;;;;1999.90;999.90;;;29.60;97.50;;;;;;5056077;28;20135;-74
2022/08/03 11:43:28;;;;;;;1999.90;999.90;;;29.50;98.00;;;;;;5038571;28;20044;-74
2022/08/03 11:45:57;;;;;;;1999.90;999.90;;;29.60;98.10;;;;;;5038558;28;20072;-75
2022/08/03 11:48:27;;;;;;;1999.90;999.90;;;29.70;97.30;;;;;;5083500;27;20404;-75
2022/08/03 11:50:53;;;;;;;1999.90;999.90;;;29.60;97.20;;;;;;5124807;27;20181;-75
2022/08/03 11:53:19;;;;;;;1999.90;999.90;;;29.60;98.10;;;;;;5120850;27;20477;-75
2022/08/03 11:55:49;;;;;;;1999.90;999.90;;;29.60;97.90;;;;;;5103513;27;20028;-75
2022/08/03 11:58:19;;;;;;;1999.90;999.90;;;29.70;96.40;;;;;;5135185;27;20037;-75
2022/08/03 12:00:45;;;;;;;1999.90;999.90;;;29.60;96.80;;;;;;5130823;27;20067;-75
2022/08/03 12:03:17;;;;;;;1999.90;999.90;;;29.60;97.30;;;;;;5131472;27;20490;-74
2022/08/03 12:05:51;;;;;;;1999.90;999.90;;;29.50;96.10;;;;;;5115121;27;20074;-75
2022/08/03 12:08:38;;;;;;;1999.90;999.90;;;29.30;96.60;;;;;;5120094;27;20039;-74
2022/08/03 12:11:06;;;;;;;1999.90;999.90;;;29.30;96.80;;;;;;5134628;27;20051;-76
2022/08/03 12:13:43;;;;;;;1999.90;999.90;;;29.30;96.10;;;;;;5133814;27;20494;-75
2022/08/03 12:16:17;;;;;;;1999.90;999.90;;;29.30;96.70;;;;;;5124088;27;20043;-75
2022/08/03 12:18:42;;;;;;;1999.90;999.90;;;29.50;97.00;;;;;;5134595;27;20071;-75